createdAt,value
2019-02-02T00:03:44.967Z,96275.31
2019-02-02T00:07:46.455Z,96293.55
2019-02-02T00:11:47.809Z,96296.06
2019-02-02T00:15:51.026Z,96283.39
2019-02-02T00:19:52.161Z,96297.09
2019-02-02T00:23:53.623Z,96300.03
2019-02-02T00:27:55.847Z,96301.30
2019-02-02T00:31:57.435Z,96305.73
2019-02-02T00:36:01.269Z,96295.31
2019-02-02T00:40:06.195Z,96300.68
2019-02-02T00:44:07.564Z,96303.87
2019-02-02T00:48:08.799Z,96305.90
2019-02-02T00:52:09.988Z,96319.64
2019-02-02T00:56:11.430Z,96316.11
2019-02-02T01:00:18.399Z,96308.42
2019-02-02T01:04:19.650Z,96290.05
2019-02-02T01:08:21.045Z,96303.73
2019-02-02T01:12:22.311Z,96307.81
2019-02-02T01:16:23.663Z,96322.30
2019-02-02T01:20:25.117Z,96340.56
2019-02-02T01:24:26.368Z,96346.73
2019-02-02T01:28:27.528Z,96337.95
2019-02-02T01:32:28.807Z,96331.44
2019-02-02T01:36:29.920Z,96339.09
2019-02-02T01:40:31.083Z,96339.17
2019-02-02T01:44:32.367Z,96335.70
2019-02-02T01:48:33.631Z,96352.75
2019-02-02T01:52:34.970Z,96367.44
2019-02-02T01:56:36.185Z,96354.63
2019-02-02T02:00:39.361Z,96354.05
2019-02-02T02:04:40.514Z,96353.81
2019-02-02T02:08:42.018Z,96352.63
2019-02-02T02:12:43.306Z,96360.20
2019-02-02T02:16:44.458Z,96363.23
2019-02-02T02:20:45.749Z,96358.94
2019-02-02T02:24:47.317Z,96356.88
2019-02-02T02:28:48.670Z,96342.39
2019-02-02T02:32:50.779Z,96342.86
2019-02-02T02:36:51.998Z,96342.17
2019-02-02T02:40:53.301Z,96341.28
2019-02-02T02:44:55.668Z,96338.01
2019-02-02T02:48:56.936Z,96340.02
2019-02-02T02:52:58.182Z,96348.09
2019-02-02T02:56:59.388Z,96347.08
2019-02-02T03:01:02.456Z,96369.12
2019-02-02T03:05:06.456Z,96375.31
2019-02-02T03:09:08.953Z,96376.11
2019-02-02T03:13:10.273Z,96362.28
2019-02-02T03:17:11.452Z,96369.75
2019-02-02T03:21:12.716Z,96373.31
2019-02-02T03:25:24.521Z,96363.16
2019-02-02T03:29:25.654Z,96363.16
2019-02-02T03:33:26.898Z,96367.70
2019-02-02T03:37:28.136Z,96368.95
2019-02-02T03:41:29.330Z,96381.34
2019-02-02T03:45:30.560Z,96401.28
2019-02-02T03:49:31.891Z,96397.60
2019-02-02T03:53:33.087Z,96388.35
2019-02-02T03:57:34.240Z,96389.72
2019-02-02T04:01:35.789Z,96403.47
2019-02-02T04:05:36.962Z,96418.55
2019-02-02T04:09:38.094Z,96453.45
2019-02-02T04:13:39.246Z,96453.45
2019-02-02T04:17:40.390Z,96428.87
2019-02-02T04:21:41.592Z,96428.41
2019-02-02T04:25:42.755Z,96464.11
2019-02-02T04:29:43.859Z,96454.06
2019-02-02T04:33:44.978Z,96448.41
2019-02-02T04:37:46.195Z,96424.83
2019-02-02T04:41:47.451Z,96456.19
2019-02-02T04:45:48.635Z,96471.04
2019-02-02T04:49:49.941Z,96466.05
2019-02-02T04:53:51.218Z,96456.63
2019-02-02T04:57:52.311Z,96418.44
2019-02-02T05:01:53.711Z,96396.31
2019-02-02T05:05:54.926Z,96401.92
2019-02-02T05:09:56.061Z,96406.08
2019-02-02T05:13:57.375Z,96434.34
2019-02-02T05:17:58.597Z,96469.78
2019-02-02T05:21:59.849Z,96493.81
2019-02-02T05:26:01.842Z,96501.08
2019-02-02T05:30:18.348Z,96491.23
2019-02-02T05:34:19.831Z,96497.86
2019-02-02T05:38:21.037Z,96481.97
2019-02-02T05:42:22.279Z,96478.14
2019-02-02T05:46:23.525Z,96463.38
2019-02-02T05:50:24.936Z,96454.91
2019-02-02T05:54:26.215Z,96472.73
2019-02-02T05:58:27.518Z,96493.75
2019-02-02T06:02:28.806Z,96516.30
2019-02-02T06:06:30.104Z,96523.55
2019-02-02T06:10:31.490Z,96533.89
2019-02-02T06:14:32.847Z,96534.41
2019-02-02T06:18:34.001Z,96529.27
2019-02-02T06:22:35.134Z,96546.46
2019-02-02T06:26:36.852Z,96550.81
2019-02-02T06:30:39.133Z,96547.65
2019-02-02T06:34:40.413Z,96562.99
2019-02-02T06:38:41.858Z,96584.80
2019-02-02T06:42:43.188Z,96594.23
2019-02-02T06:46:44.385Z,96589.73
2019-02-02T06:50:45.492Z,96589.56
2019-02-02T06:54:46.757Z,96586.60
2019-02-02T06:58:48.005Z,96593.21
2019-02-02T07:02:49.915Z,96593.66
2019-02-02T07:06:53.226Z,96602.52
2019-02-02T07:10:54.283Z,96605.98
2019-02-02T07:14:56.806Z,96611.10
2019-02-02T07:18:57.919Z,96627.80
2019-02-02T07:22:59.077Z,96637.11
2019-02-02T07:27:00.208Z,96630.21
2019-02-02T07:31:01.498Z,96646.75
2019-02-02T07:35:04.974Z,96644.56
2019-02-02T07:39:06.186Z,96648.28
2019-02-02T07:43:08.357Z,96647.87
2019-02-02T07:47:09.503Z,96660.28
2019-02-02T07:51:10.653Z,96660.66
2019-02-02T07:55:14.390Z,96666.81
2019-02-02T07:59:16.635Z,96665.84
2019-02-02T08:03:17.918Z,96685.31
2019-02-02T08:07:19.327Z,96691.01
2019-02-02T08:11:20.645Z,96710.13
2019-02-02T08:15:24.956Z,96726.66
2019-02-02T08:19:26.487Z,96720.98
2019-02-02T08:23:27.856Z,96725.91
2019-02-02T08:27:29.179Z,96733.80
2019-02-02T08:31:30.834Z,96744.57
2019-02-02T08:35:33.136Z,96746.76
2019-02-02T08:39:34.385Z,96750.01
2019-02-02T08:43:35.749Z,96761.82
2019-02-02T08:47:37.090Z,96764.27
2019-02-02T08:51:38.290Z,96771.06
2019-02-02T08:55:39.545Z,96772.83
2019-02-02T08:59:40.797Z,96777.97
2019-02-02T09:03:42.021Z,96775.59
2019-02-02T09:07:43.263Z,96789.56
2019-02-02T09:11:44.979Z,96800.73
2019-02-02T09:15:46.741Z,96803.88
2019-02-02T09:19:48.258Z,96800.03
2019-02-02T09:23:49.431Z,96801.24
2019-02-02T09:27:50.764Z,96801.16
2019-02-02T09:31:52.552Z,96802.13
2019-02-02T09:35:54.071Z,96804.41
2019-02-02T09:39:55.503Z,96805.80
2019-02-02T09:43:56.966Z,96810.62
2019-02-02T09:47:58.532Z,96808.91
2019-02-02T09:51:59.924Z,96806.53
2019-02-02T09:56:01.198Z,96807.09
2019-02-02T10:00:06.165Z,96815.34
2019-02-02T10:04:07.547Z,96821.98
2019-02-02T10:08:08.817Z,96825.31
2019-02-02T10:12:10.579Z,96838.27
2019-02-02T10:16:11.784Z,96833.83
2019-02-02T10:20:15.580Z,96843.80
2019-02-02T10:24:16.791Z,96854.80
2019-02-02T10:28:17.953Z,96859.08
2019-02-02T10:32:19.097Z,96860.65
2019-02-02T10:36:20.358Z,96870.13
2019-02-02T10:40:22.178Z,96876.31
2019-02-02T10:44:24.454Z,96880.60
2019-02-02T10:48:26.196Z,96883.33
2019-02-02T10:52:27.527Z,96890.13
2019-02-02T10:56:28.905Z,96894.70
2019-02-02T11:00:36.055Z,96900.72
2019-02-02T11:04:37.438Z,96902.03
2019-02-02T11:08:38.889Z,96914.76
2019-02-02T11:12:40.631Z,96906.52
2019-02-02T11:16:42.090Z,96896.28
2019-02-02T11:20:43.954Z,96904.42
2019-02-02T11:24:45.344Z,96891.61
2019-02-02T11:28:47.183Z,96890.69
2019-02-02T11:32:48.724Z,96902.65
2019-02-02T11:36:49.865Z,96900.38
2019-02-02T11:40:51.076Z,96896.58
2019-02-02T11:44:52.333Z,96898.19
2019-02-02T11:48:53.591Z,96895.19
2019-02-02T11:52:54.863Z,96884.14
2019-02-02T11:56:56.311Z,96885.53
2019-02-02T12:00:57.577Z,96886.30
2019-02-02T12:04:59.018Z,96877.17
2019-02-02T12:09:00.630Z,96876.42
2019-02-02T12:13:01.929Z,96885.16
2019-02-02T12:17:03.402Z,96890.29
2019-02-02T12:21:04.788Z,96889.86
2019-02-02T12:25:06.464Z,96880.63
2019-02-02T12:29:07.867Z,96889.70
2019-02-02T12:33:09.224Z,96885.22
2019-02-02T12:37:10.612Z,96898.42
2019-02-02T12:41:11.892Z,96895.75
2019-02-02T12:45:19.060Z,96894.42
2019-02-02T12:49:20.456Z,96883.16
2019-02-02T12:53:21.709Z,96889.13
2019-02-02T12:57:23.206Z,96896.66
2019-02-02T13:01:24.583Z,96910.34
2019-02-02T13:05:25.962Z,96912.02
2019-02-02T13:09:27.380Z,96919.10
2019-02-02T13:13:28.535Z,96920.30
2019-02-02T13:17:30.177Z,96922.98
2019-02-02T13:21:31.384Z,96922.37
2019-02-02T13:25:32.955Z,96924.23
2019-02-02T13:29:34.925Z,96934.73
2019-02-02T13:33:36.166Z,96933.84
2019-02-02T13:37:37.641Z,96938.13
2019-02-02T13:41:39.498Z,96947.25
2019-02-02T13:45:41.245Z,96937.91
2019-02-02T13:49:42.707Z,96950.55
2019-02-02T13:53:44.203Z,96955.13
2019-02-02T13:57:47.304Z,96958.92
2019-02-02T14:01:48.579Z,96966.94
2019-02-02T14:05:50.004Z,96974.18
2019-02-02T14:09:51.249Z,96980.56
2019-02-02T14:13:52.647Z,96987.75
2019-02-02T14:17:53.878Z,97001.39
2019-02-02T14:21:55.136Z,97008.97
2019-02-02T14:25:56.532Z,97016.42
2019-02-02T14:29:57.807Z,97026.13
2019-02-02T14:33:59.115Z,97030.02
2019-02-02T14:38:00.702Z,97039.66
2019-02-02T14:42:01.879Z,97054.62
2019-02-02T14:46:03.359Z,97058.22
2019-02-02T14:50:10.593Z,97057.13
2019-02-02T14:54:12.180Z,97065.13
2019-02-02T14:58:13.858Z,97065.39
2019-02-02T15:02:15.251Z,97076.38
2019-02-02T15:06:16.510Z,97078.57
2019-02-02T15:10:18.887Z,97086.02
2019-02-02T15:14:20.294Z,97089.87
2019-02-02T15:18:21.499Z,97099.57
2019-02-02T15:22:22.841Z,97102.88
2019-02-02T15:26:25.537Z,97110.94
2019-02-02T15:30:29.272Z,97113.90
2019-02-02T15:34:30.608Z,97121.97
2019-02-02T15:38:31.853Z,97117.49
2019-02-02T15:42:33.553Z,97119.05
2019-02-02T15:46:34.893Z,97128.83
2019-02-02T15:50:36.155Z,97136.41
2019-02-02T15:54:37.305Z,97134.97
2019-02-02T15:58:39.112Z,97133.50
2019-02-02T16:02:40.587Z,97137.67
2019-02-02T16:06:41.876Z,97135.08
2019-02-02T16:10:43.241Z,97135.85
2019-02-02T16:14:44.345Z,97129.41
2019-02-02T16:18:45.849Z,97143.39
2019-02-02T16:22:48.031Z,97148.20
2019-02-02T16:26:49.468Z,97151.75
2019-02-02T16:30:50.626Z,97160.22
2019-02-02T16:34:52.110Z,97171.88
2019-02-02T16:38:53.430Z,97175.94
2019-02-02T16:42:54.967Z,97184.61
2019-02-02T16:46:56.251Z,97191.25
2019-02-02T16:50:57.508Z,97198.00
2019-02-02T16:55:04.608Z,97199.62
2019-02-02T16:59:10.615Z,97208.59
2019-02-02T17:03:11.901Z,97206.86
2019-02-02T17:07:13.149Z,97199.36
2019-02-02T17:11:14.706Z,97212.64
2019-02-02T17:15:17.045Z,97217.66
2019-02-02T17:19:18.655Z,97226.11
2019-02-02T17:23:20.180Z,97230.95
2019-02-02T17:27:21.348Z,97236.33
2019-02-02T17:31:24.570Z,97234.75
2019-02-02T17:35:26.181Z,97234.75
2019-02-02T17:39:27.605Z,97229.75
2019-02-02T17:43:28.979Z,97235.73
2019-02-02T17:47:30.246Z,97244.36
2019-02-02T17:51:31.404Z,97248.33
2019-02-02T17:55:32.816Z,97255.33
2019-02-02T17:59:34.117Z,97257.55
2019-02-02T18:03:35.248Z,97276.02
2019-02-02T18:07:36.538Z,97277.72
2019-02-02T18:11:39.343Z,97291.36
2019-02-02T18:15:40.641Z,97298.62
2019-02-02T18:19:42.030Z,97314.27
2019-02-02T18:23:43.383Z,97316.50
2019-02-02T18:27:45.058Z,97328.45
2019-02-02T18:31:46.311Z,97345.19
2019-02-02T18:35:47.588Z,97343.27
2019-02-02T18:39:48.752Z,97347.64
2019-02-02T18:43:50.102Z,97367.12
2019-02-02T18:47:51.364Z,97383.60
2019-02-02T18:51:53.316Z,97395.95
2019-02-02T18:55:56.714Z,97413.02
2019-02-02T18:59:58.273Z,97411.54
2019-02-02T19:03:59.686Z,97407.01
2019-02-02T19:08:01.064Z,97406.31
2019-02-02T19:12:02.439Z,97402.44
2019-02-02T19:16:03.944Z,97398.84
2019-02-02T19:20:14.738Z,97418.48
2019-02-02T19:24:16.257Z,97429.89
2019-02-02T19:28:17.481Z,97443.25
2019-02-02T19:32:19.083Z,97443.55
2019-02-02T19:36:20.211Z,97449.90
2019-02-02T19:40:21.468Z,97465.67
2019-02-02T19:44:22.855Z,97468.05
2019-02-02T19:48:24.410Z,97475.86
2019-02-02T19:52:25.797Z,97474.36
2019-02-02T19:56:27.060Z,97478.54
2019-02-02T20:00:30.640Z,97490.63
2019-02-02T20:04:32.081Z,97499.45
2019-02-02T20:08:33.467Z,97503.88
2019-02-02T20:12:34.717Z,97517.37
2019-02-02T20:16:35.992Z,97526.47
2019-02-02T20:20:37.725Z,97540.59
2019-02-02T20:24:40.260Z,97545.45
2019-02-02T20:28:41.549Z,97561.07
2019-02-02T20:32:44.061Z,97556.34
2019-02-02T20:36:45.851Z,97559.64
2019-02-02T20:40:47.292Z,97563.05
2019-02-02T20:44:48.810Z,97564.82
2019-02-02T20:48:50.433Z,97567.05
2019-02-02T20:52:52.116Z,97566.92
2019-02-02T20:56:53.210Z,97571.69
2019-02-02T21:00:54.487Z,97572.69
2019-02-02T21:04:55.832Z,97572.28
2019-02-02T21:08:59.090Z,97570.66
2019-02-02T21:13:00.707Z,97564.11
2019-02-02T21:17:01.953Z,97561.36
2019-02-02T21:21:03.651Z,97558.24
2019-02-02T21:25:07.741Z,97563.19
2019-02-02T21:29:09.426Z,97566.06
2019-02-02T21:33:11.116Z,97575.91
2019-02-02T21:37:12.502Z,97574.72
2019-02-02T21:41:13.946Z,97577.64
2019-02-02T21:45:15.559Z,97585.33
2019-02-02T21:49:16.974Z,97591.20
2019-02-02T21:53:18.851Z,97587.97
2019-02-02T21:57:20.240Z,97585.53
2019-02-02T22:01:24.625Z,97577.16
2019-02-02T22:05:26.139Z,97571.84
2019-02-02T22:09:27.462Z,97577.33
2019-02-02T22:13:28.742Z,97579.59
2019-02-02T22:17:30.148Z,97581.58
2019-02-02T22:21:31.419Z,97594.40
2019-02-02T22:25:32.656Z,97594.72
2019-02-02T22:29:34.011Z,97603.69
2019-02-02T22:33:35.327Z,97611.61
2019-02-02T22:37:36.456Z,97622.29
2019-02-02T22:41:37.938Z,97636.20
2019-02-02T22:45:39.144Z,97647.31
2019-02-02T22:49:40.503Z,97646.25
2019-02-02T22:53:41.883Z,97658.78
2019-02-02T22:57:43.385Z,97665.47
2019-02-02T23:01:44.660Z,97671.62
2019-02-02T23:06:02.197Z,97676.11
2019-02-02T23:10:19.237Z,97680.30
2019-02-02T23:14:42.465Z,97686.80
2019-02-02T23:18:46.797Z,97699.32
2019-02-02T23:22:47.119Z,97701.55
2019-02-02T23:26:48.251Z,97702.86
2019-02-02T23:30:49.467Z,97699.18
2019-02-02T23:34:50.933Z,97702.57
2019-02-02T23:38:52.279Z,97704.98
2019-02-02T23:42:53.444Z,97712.02
2019-02-02T23:46:55.316Z,97725.74
2019-02-02T23:50:56.590Z,97730.19
2019-02-02T23:54:58.101Z,97727.21
2019-02-02T23:58:59.477Z,97731.42
